Latest Weather Observations for Clermont Airport

IDQ60801

Issued at 8:02 am EST Saturday 29 August 2015 (issued every 30 minutes, with the page automatically refreshed every 10 minutes)

About weather observations | Map of weather stations | Latest weather observations for QLD | Other Formats
Station Details ID: 035124 Name: CLERMONT AIRPORT Lat: -22.78 Lon: 147.62 Height: 270.27 m
Data from the previous 72 hours. | See also: Recent months at Clermont Airport
Date/Time
EST
Temp
°C
App
Temp
°C
Dew
Point
Rel
Hum
%
Delta-T
°C
Wind Press
QNH
hPa
Press
MSL
hPa
Rain
since 9 am
mm
Dir
 
Spd
km/h
Gust
km/h
Spd
kts
Gust
kts
29/07:30am 17.0 18.2 13.7 81 1.9 CALM 0 0 0 0 1021.0 1020.5 0.0
29/07:00am 14.6 15.4 12.5 87 1.2 CALM 0 0 0 0 1020.8 1020.3 0.0
29/06:30am 14.4 14.9 11.7 84 1.5 CALM 0 0 0 0 1020.4 1019.9 0.0
29/06:00am 14.5 14.8 12.2 86 1.3 SSW 2 4 1 2 1020.2 1019.7 0.0
29/05:30am 15.1 15.1 12.4 84 1.5 SW 4 4 2 2 1019.9 1019.4 0.0
29/05:00am 16.0 17.0 13.1 83 1.6 CALM 0 0 0 0 1019.6 1019.1 0.0
29/04:30am 16.6 17.2 13.1 80 2.0 NNW 2 4 1 2 1019.1 1018.6 0.0
29/04:00am 17.7 18.8 13.6 77 2.3 CALM 0 0 0 0 1019.3 1018.8 0.0
29/03:30am 17.7 18.8 13.4 76 2.5 CALM 0 0 0 0 1019.6 1019.1 0.0
29/03:00am 17.4 18.6 13.9 80 2.0 CALM 0 0 0 0 1019.6 1019.1 0.0
29/02:30am 16.9 18.0 13.4 80 2.0 CALM 0 0 0 0 1019.8 1019.3 0.0
29/02:00am 17.2 18.2 13.3 78 2.2 CALM 0 0 0 0 1019.8 1019.3 0.0
29/01:30am 18.0 19.2 13.9 77 2.4 CALM 0 2 0 1 1019.9 1019.4 0.0
29/01:00am 17.3 18.4 13.4 78 2.2 CALM 0 0 0 0 1019.9 1019.4 0.0
29/12:30am 18.5 19.6 13.4 72 2.9 CALM 0 0 0 0 1020.4 1019.9 0.0
29/12:00am 19.4 20.4 13.3 68 3.5 CALM 0 0 0 0 1020.5 1020.0 0.0
 
Date/Time
EST
Temp
°C
App
Temp
°C
Dew
Point
Rel
Hum
%
Delta-T
°C
Wind Press
QNH
hPa
Press
MSL
hPa
Rain
since 9 am
mm
Dir
 
Spd
km/h
Gust
km/h
Spd
kts
Gust
kts
28/11:30pm 19.5 19.9 13.7 69 3.4 NW 4 6 2 3 1020.4 1019.9 0.0
28/11:00pm 19.3 20.2 13.0 67 3.6 CALM 0 0 0 0 1020.2 1019.7 0.0
28/10:30pm 20.1 20.2 12.8 63 4.2 S 4 7 2 4 1020.2 1019.7 0.0
28/10:00pm 20.9 20.7 13.1 61 4.5 SSE 6 9 3 5 1020.3 1019.8 0.0
28/09:30pm 20.9 21.0 12.8 60 4.7 ESE 4 6 2 3 1019.9 1019.4 0.0
28/09:00pm 21.5 21.8 13.4 60 4.7 E 4 7 2 4 1019.7 1019.2 0.0
28/08:30pm 22.7 22.5 13.7 56 5.3 SE 7 13 4 7 1019.7 1019.2 0.0
28/08:00pm 23.2 22.7 13.7 55 5.6 SE 9 15 5 8 1019.4 1018.9 0.0
28/07:30pm 23.7 23.5 13.6 53 6.0 SSE 7 11 4 6 1018.8 1018.2 0.0
28/07:00pm 24.3 23.6 13.2 50 6.5 SE 9 19 5 10 1018.5 1017.9 0.0
28/06:30pm 24.9 24.5 13.1 48 6.9 SSE 7 9 4 5 1017.8 1017.3 0.0
28/06:00pm 25.6 25.1 12.8 45 7.5 SE 7 9 4 5 1017.6 1017.1 0.0
28/05:30pm 26.4 25.3 13.2 44 7.8 SSE 11 17 6 9 1017.3 1016.8 0.0
28/05:00pm 26.8 25.7 12.1 40 8.6 SSE 9 13 5 7 1016.9 1016.4 0.0
28/04:30pm 27.7 27.0 12.1 38 9.1 S 7 13 4 7 1016.7 1016.2 0.0
28/04:00pm 28.0 27.2 12.8 39 9.0 SE 9 17 5 9 1016.5 1016.0 0.0
28/03:30pm 28.0 26.3 12.4 38 9.2 SSE 13 19 7 10 1016.5 1016.0 0.0
28/03:00pm 27.3 26.6 12.1 39 8.9 SSE 7 13 4 7 1016.9 1016.4 0.0
28/02:30pm 26.6 25.5 13.0 43 8.0 S 11 22 6 12 1017.5 1017.0 0.0
28/02:00pm 27.1 25.7 13.4 42 8.2 SSE 13 22 7 12 1018.1 1017.5 0.0
28/01:30pm 26.9 26.9 13.6 44 7.9 SW 6 15 3 8 1018.1 1017.5 0.0
28/01:00pm 26.1 25.5 13.6 46 7.4 ESE 9 13 5 7 1018.4 1017.8 0.0
28/12:30pm 25.0 23.6 13.5 48 6.8 S 13 22 7 12 1019.3 1018.8 0.0
28/12:00pm 25.9 25.9 14.1 48 7.1 SE 7 15 4 8 1020.1 1019.6 0.0
28/11:30am 24.4 24.4 13.6 51 6.4 ENE 6 9 3 5 1020.8 1020.3 0.0
28/11:00am 23.9 23.7 13.7 53 6.0 SE 7 13 4 7 1021.3 1020.8 0.0
28/10:30am 23.3 23.2 14.0 56 5.5 E 7 13 4 7 1021.8 1021.3 0.0
28/10:00am 22.8 22.4 14.1 58 5.1 E 9 17 5 9 1022.2 1021.7 0.0
28/09:30am 21.9 21.5 14.0 61 4.7 ESE 9 15 5 8 1022.5 1022.0 0.0
28/09:00am 20.9 19.6 13.6 63 4.2 SE 13 19 7 10 1022.6 1022.1 0.0
28/08:30am 20.8 19.9 13.7 64 4.1 SE 11 19 6 10 1022.5 1022.0 0.0
28/08:00am 19.5 19.4 13.9 70 3.2 SE 7 11 4 6 1022.3 1021.8 0.0
28/07:30am 18.4 18.6 14.3 77 2.4 SSE 6 9 3 5 1022.0 1021.4 0.0
28/07:00am 17.0 17.5 14.1 83 1.7 S 4 6 2 3 1021.6 1021.1 0.0
28/06:30am 16.8 17.6 13.7 82 1.8 SE 2 4 1 2 1021.1 1020.6 0.0
28/06:00am 16.9 17.4 14.0 83 1.7 SSW 4 6 2 3 1020.8 1020.3 0.0
28/05:30am 16.8 17.7 13.9 83 1.7 S 2 4 1 2 1020.6 1020.1 0.0
28/05:00am 16.8 18.1 14.1 84 1.6 CALM 0 4 0 2 1020.1 1019.6 0.0
28/04:30am 16.3 16.2 14.0 86 1.3 SSW 7 9 4 5 1020.1 1019.6 0.0
28/04:00am 15.8 16.8 13.3 85 1.4 CALM 0 0 0 0 1019.9 1019.4 0.0
28/03:30am 16.5 17.4 13.0 80 2.0 CALM 0 0 0 0 1019.8 1019.3 0.0
28/03:00am 17.6 18.8 13.7 78 2.2 CALM 0 0 0 0 1019.9 1019.4 0.0
28/02:30am 17.8 18.2 13.7 77 2.4 S 4 6 2 3 1019.9 1019.4 0.0
28/02:00am 17.8 18.1 13.3 75 2.6 SSW 4 6 2 3 1020.0 1019.5 0.0
28/01:30am 18.5 18.3 13.6 73 2.8 S 7 9 4 5 1020.5 1020.0 0.0
28/01:00am 18.7 18.9 13.1 70 3.2 SSE 4 6 2 3 1020.8 1020.3 0.0
28/12:30am 19.2 19.1 13.4 69 3.3 SSE 6 9 3 5 1021.0 1020.5 0.0
28/12:00am 19.2 19.1 13.4 69 3.3 ESE 6 11 3 6 1020.4 1019.9 0.0
 
Date/Time
EST
Temp
°C
App
Temp
°C
Dew
Point
Rel
Hum
%
Delta-T
°C
Wind Press
QNH
hPa
Press
MSL
hPa
Rain
since 9 am
mm
Dir
 
Spd
km/h
Gust
km/h
Spd
kts
Gust
kts
27/11:30pm 19.7 20.5 13.6 68 3.5 SSE 2 6 1 3 1021.4 1020.9 0.0
27/11:00pm 19.9 20.2 13.4 66 3.7 SSE 4 6 2 3 1021.6 1021.1 0.0
27/10:30pm 19.9 19.8 13.4 66 3.8 SSW 6 7 3 4 1021.8 1021.3 0.0
27/10:00pm 20.0 20.2 13.2 65 3.9 SSE 4 6 2 3 1021.5 1021.0 0.0
27/09:30pm 20.3 20.6 13.3 64 4.0 SSE 4 7 2 4 1021.2 1020.7 0.0
27/09:00pm 20.5 20.4 13.2 63 4.2 SE 6 7 3 4 1020.8 1020.3 0.0
27/08:30pm 20.8 20.6 13.5 63 4.2 SE 7 11 4 6 1021.1 1020.6 0.0
27/08:00pm 21.1 20.4 13.3 61 4.5 SSE 9 15 5 8 1021.0 1020.5 0.0
27/07:30pm 21.3 20.5 13.0 59 4.8 S 9 15 5 8 1020.5 1020.0 0.0
27/07:00pm 21.6 20.8 13.0 58 5.0 S 9 13 5 7 1020.2 1019.7 0.0
27/06:30pm 21.8 20.6 12.9 57 5.1 S 11 17 6 9 1019.8 1019.3 0.0
27/06:00pm 22.2 21.3 12.7 55 5.5 SE 9 15 5 8 1019.2 1018.7 0.0
27/05:30pm 22.7 21.1 12.9 54 5.7 SSE 13 19 7 10 1019.1 1018.6 0.0
27/05:00pm 23.1 21.2 13.0 53 5.9 SSE 15 20 8 11 1018.8 1018.2 0.0
27/04:30pm 23.4 21.5 13.0 52 6.1 SSE 15 22 8 12 1018.5 1017.9 0.0
27/04:00pm 25.1 23.2 13.0 47 7.1 SSE 15 20 8 11 1018.3 1017.7 0.0
27/03:30pm 25.9 24.4 12.0 42 8.1 S 11 17 6 9 1018.2 1017.6 0.0
27/03:00pm 26.1 25.3 11.1 39 8.6 E 6 15 3 8 1018.3 1017.7 0.0
27/02:30pm 25.9 24.8 12.0 42 8.1 S 9 17 5 9 1018.6 1018.0 0.0
27/02:00pm 25.8 24.3 11.9 42 8.0 SSE 11 20 6 11 1019.2 1018.7 0.0
27/01:30pm 25.2 24.4 11.7 43 7.8 S 7 19 4 10 1019.5 1019.0 0.0
27/01:00pm 25.2 24.1 12.1 44 7.6 E 9 15 5 8 1019.8 1019.3 0.0
27/12:30pm 24.8 23.0 12.1 45 7.3 SSE 13 20 7 11 1020.5 1020.0 0.0
27/12:00pm 24.7 23.4 12.6 47 7.0 SE 11 17 6 9 1021.1 1020.6 0.0
27/11:30am 25.1 25.1 13.6 49 6.8 SSW 6 11 3 6 1021.5 1021.0 0.0
27/11:00am 23.6 23.3 13.2 52 6.1 SW 7 11 4 6 1022.1 1021.5 0.0
27/10:30am 22.5 22.6 13.8 58 5.1 SSW 6 11 3 6 1022.5 1022.0 0.0
27/10:00am 22.1 22.1 13.7 59 4.9 S 6 13 3 7 1022.6 1022.1 0.0
27/09:30am 22.1 22.7 14.2 61 4.7 NNW 4 7 2 4 1022.7 1022.2 0.0
27/09:00am 20.9 21.2 14.5 67 3.8 ENE 6 9 3 5 1022.5 1022.0 0.0
27/08:30am 19.3 19.8 14.1 72 3.0 ENE 4 9 2 5 1022.8 1022.3 0.0
27/08:00am 18.4 19.4 14.3 77 2.4 SSE 2 6 1 3 1022.6 1022.1 0.0
27/07:30am 17.4 18.0 14.3 82 1.8 SSE 4 6 2 3 1022.4 1021.9 0.0
27/07:00am 15.7 17.0 14.1 90 0.9 CALM 0 0 0 0 1021.8 1021.3 0.0
27/06:30am 15.8 17.1 14.2 90 0.9 CALM 0 0 0 0 1021.6 1021.1 0.0
27/06:00am 15.3 16.5 13.8 91 0.9 CALM 0 0 0 0 1021.0 1020.5 0.0
27/05:30am 15.1 16.2 13.6 91 0.8 CALM 0 0 0 0 1020.8 1020.3 0.0
27/05:00am 14.7 15.7 13.1 90 0.9 CALM 0 0 0 0 1020.1 1019.6 0.0
27/04:30am 15.1 16.1 13.3 89 1.0 CALM 0 0 0 0 1019.9 1019.4 0.0
27/04:00am 15.9 17.1 13.7 87 1.3 CALM 0 0 0 0 1019.6 1019.1 0.0
27/03:30am 16.3 17.4 13.4 83 1.6 CALM 0 4 0 2 1019.6 1019.1 0.0
27/03:00am 17.4 17.9 13.9 80 2.0 SE 4 9 2 5 1019.6 1019.1 0.0
27/02:30am 17.8 18.1 14.5 81 1.9 ESE 6 7 3 4 1019.9 1019.4 0.0
27/02:00am 18.3 19.1 15.9 86 1.4 SE 6 9 3 5 1019.9 1019.4 0.0
27/01:30am 18.6 19.5 16.2 86 1.4 SE 6 9 3 5 1020.2 1019.7 0.0
27/01:00am 18.9 19.9 16.3 85 1.6 SE 6 9 3 5 1020.4 1019.9 0.0
27/12:30am 19.1 20.5 16.5 85 1.6 SE 4 9 2 5 1020.9 1020.4 0.0
27/12:00am 19.6 19.7 16.6 83 1.8 SE 11 17 6 9 1021.3 1020.8 0.0
 
Date/Time
EST
Temp
°C
App
Temp
°C
Dew
Point
Rel
Hum
%
Delta-T
°C
Wind Press
QNH
hPa
Press
MSL
hPa
Rain
since 9 am
mm
Dir
 
Spd
km/h
Gust
km/h
Spd
kts
Gust
kts
26/11:30pm 20.2 20.9 16.2 78 2.4 SE 7 17 4 9 1021.4 1020.9 0.0
26/11:00pm 20.8 20.0 16.2 75 2.8 SSE 15 26 8 14 1021.1 1020.6 0.0
26/10:30pm 22.7 21.7 15.5 64 4.4 SSE 15 28 8 15 1021.1 1020.6 0.0
26/10:00pm 23.6 23.7 13.8 54 5.8 NE 6 9 3 5 1020.2 1019.7 0.0
26/09:30pm 23.9 23.2 13.2 51 6.3 NNE 9 15 5 8 1019.6 1019.1 0.0
26/09:00pm 23.4 22.2 12.7 51 6.2 NNE 11 15 6 8 1018.9 1018.3 0.0
26/08:30pm 23.3 22.7 12.3 50 6.3 NNE 7 9 4 5 1018.4 1017.8 0.0
26/08:00pm 23.6 23.2 12.9 51 6.2 NNE 7 7 4 4 1018.4 1017.8 0.0
26/07:30pm 24.2 24.0 13.1 50 6.5 NNE 6 7 3 4 1018.1 1017.5 0.0
26/07:00pm 25.1 25.2 13.9 49 6.7 NNE 6 7 3 4 1017.5 1017.0 0.0
26/06:30pm 25.9 25.5 13.1 45 7.6 NNE 7 7 4 4 1017.2 1016.7 0.0
26/06:00pm 27.5 26.3 11.5 37 9.3 NNE 9 13 5 7 1016.7 1016.2 0.0
26/05:30pm 29.9 28.6 11.4 32 10.8 NNE 9 17 5 9 1016.4 1015.9 0.0
26/05:00pm 30.9 30.2 13.2 34 10.7 NE 9 17 5 9 1016.2 1015.7 0.0
26/04:30pm 31.0 30.0 14.6 37 10.1 NNE 13 20 7 11 1016.1 1015.6 0.0
26/04:00pm 30.5 30.5 14.2 37 10.0 NNE 7 15 4 8 1016.1 1015.6 0.0
26/03:30pm 30.8 31.6 14.8 37 9.9 N 4 9 2 5 1016.1 1015.6 0.0
26/03:00pm 30.2 29.6 14.7 39 9.5 NNW 11 20 6 11 1016.2 1015.7 0.0
26/02:30pm 29.7 29.9 14.7 40 9.2 NNE 7 15 4 8 1016.9 1016.4 0.0
26/02:00pm 29.5 29.0 13.7 38 9.5 N 9 19 5 10 1017.5 1017.0 0.0
26/01:30pm 29.6 30.0 15.3 41 8.9 NNE 7 15 4 8 1017.8 1017.3 0.0
26/01:00pm 28.4 29.0 15.7 46 7.9 ENE 7 15 4 8 1018.4 1017.8 0.0
26/12:30pm 28.0 28.5 15.6 46 7.7 ENE 7 15 4 8 1018.9 1018.3 0.0
26/12:00pm 27.6 28.4 15.9 49 7.3 N 6 9 3 5 1019.8 1019.3 0.0
26/11:30am 26.6 27.3 15.6 50 6.8 E 6 11 3 6 1020.7 1020.2 0.0
26/11:00am 25.5 26.1 15.2 53 6.3 SE 6 11 3 6 1021.2 1020.7 0.0
26/10:30am 25.1 26.2 15.7 56 5.8 WNW 4 9 2 5 1021.6 1021.1 0.0
26/10:00am 24.1 24.7 15.9 60 5.0 NW 7 13 4 7 1022.0 1021.4 0.0
26/09:30am 23.4 24.3 16.0 63 4.5 N 6 13 3 7 1022.3 1021.8 0.0
26/09:00am 22.3 23.4 16.6 70 3.5 NNW 6 11 3 6 1022.3 1021.8 6.8
26/08:30am 20.5 21.9 16.5 78 2.4 NNW 4 7 2 4 1022.1 1021.5 6.8

Other Formats:

Comma delimited format used in spreadsheet applications
http://www.bom.gov.au/fwo/IDQ60801/IDQ60801.94395.axf

JavaScript Object Notation format (JSON) in row-major order
http://www.bom.gov.au/fwo/IDQ60801/IDQ60801.94395.json